createdAt,value
2018-05-15T00:01:59.413Z,7.25
2018-05-15T00:05:09.468Z,6.00
2018-05-15T00:08:19.582Z,6.25
2018-05-15T00:11:29.500Z,7.32
2018-05-15T00:14:39.382Z,8.20
2018-05-15T00:17:50.009Z,6.05
2018-05-15T00:21:00.745Z,7.20
2018-05-15T00:24:11.291Z,7.75
2018-05-15T00:27:21.165Z,8.40
2018-05-15T00:30:31.508Z,6.28
2018-05-15T00:33:41.341Z,7.35
2018-05-15T00:36:52.021Z,7.65
2018-05-15T00:40:02.364Z,8.05
2018-05-15T00:43:12.362Z,6.55
2018-05-15T00:46:22.868Z,7.05
2018-05-15T00:49:32.914Z,6.32
2018-05-15T00:52:43.632Z,7.82
2018-05-15T00:55:54.401Z,8.10
2018-05-15T00:59:04.674Z,7.57
2018-05-15T01:02:15.889Z,8.38
2018-05-15T01:05:26.108Z,6.55
2018-05-15T01:08:36.222Z,7.10
2018-05-15T01:11:46.184Z,6.43
2018-05-15T01:14:55.962Z,7.78
2018-05-15T01:18:06.699Z,9.27
2018-05-15T01:21:18.124Z,9.68
2018-05-15T01:24:28.010Z,6.78
2018-05-15T01:27:38.652Z,8.32
2018-05-15T01:30:48.649Z,7.57
2018-05-15T01:34:00.105Z,7.47
2018-05-15T01:37:09.990Z,7.35
2018-05-15T01:40:20.045Z,6.90
2018-05-15T01:43:30.660Z,6.75
2018-05-15T01:46:41.244Z,6.95
2018-05-15T01:49:51.902Z,8.85
2018-05-15T01:53:02.040Z,8.45
2018-05-15T01:56:12.852Z,9.43
2018-05-15T01:59:22.987Z,6.53
2018-05-15T02:02:32.960Z,8.80
2018-05-15T02:05:42.889Z,7.70
2018-05-15T02:08:52.938Z,7.10
2018-05-15T02:12:03.732Z,6.75
2018-05-15T02:15:14.343Z,7.57
2018-05-15T02:18:25.043Z,9.32
2018-05-15T02:21:35.803Z,8.70
2018-05-15T02:24:45.827Z,8.13
2018-05-15T02:27:56.592Z,9.48
2018-05-15T02:31:05.993Z,6.57
2018-05-15T02:34:16.265Z,8.13
2018-05-15T02:37:27.111Z,9.02
2018-05-15T02:40:37.305Z,7.72
2018-05-15T02:43:47.951Z,6.68
2018-05-15T02:46:59.559Z,7.57
2018-05-15T02:50:10.449Z,7.20
2018-05-15T02:53:20.223Z,8.20
2018-05-15T02:56:31.591Z,8.82
2018-05-15T02:59:41.996Z,7.40
2018-05-15T03:02:52.015Z,8.98
2018-05-15T03:06:02.034Z,9.18
2018-05-15T03:09:11.816Z,7.57
2018-05-15T03:12:21.605Z,6.68
2018-05-15T03:15:32.260Z,8.98
2018-05-15T03:18:42.205Z,8.10
2018-05-15T03:21:52.072Z,9.60
2018-05-15T03:25:02.285Z,7.45
2018-05-15T03:28:13.051Z,9.07
2018-05-15T03:31:22.918Z,8.85
2018-05-15T03:34:33.612Z,8.45
2018-05-15T03:37:44.503Z,11.95
2018-05-15T03:40:55.437Z,10.15
2018-05-15T03:44:05.277Z,7.07
2018-05-15T03:47:15.247Z,7.85
2018-05-15T03:50:25.963Z,9.18
2018-05-15T03:53:35.716Z,8.98
2018-05-15T03:56:45.568Z,12.70
2018-05-15T03:59:56.081Z,8.82
2018-05-15T04:03:17.876Z,7.50
2018-05-15T04:06:39.130Z,11.15
2018-05-15T04:09:50.693Z,8.02
2018-05-15T04:13:00.477Z,8.43
2018-05-15T04:16:10.663Z,10.70
2018-05-15T04:19:20.982Z,10.50
2018-05-15T04:22:31.801Z,7.62
2018-05-15T04:25:41.814Z,8.27
2018-05-15T04:28:52.436Z,11.27
2018-05-15T04:32:03.064Z,8.80
2018-05-15T04:35:13.853Z,9.27
2018-05-15T04:38:24.316Z,11.45
2018-05-15T04:41:34.833Z,10.43
2018-05-15T04:44:46.305Z,8.80
2018-05-15T04:47:56.661Z,11.27
2018-05-15T04:51:07.254Z,9.27
2018-05-15T04:54:17.645Z,9.43
2018-05-15T04:57:27.391Z,11.05
2018-05-15T05:00:37.361Z,11.18
2018-05-15T05:03:48.100Z,10.18
2018-05-15T05:06:58.151Z,8.55
2018-05-15T05:10:07.902Z,8.93
2018-05-15T05:13:17.814Z,9.88
2018-05-15T05:16:27.628Z,9.13
2018-05-15T05:19:38.334Z,10.65
2018-05-15T05:22:48.060Z,8.18
2018-05-15T05:25:58.069Z,9.13
2018-05-15T05:29:07.703Z,11.45
2018-05-15T05:32:18.231Z,9.48
2018-05-15T05:35:28.096Z,10.95
2018-05-15T05:38:38.034Z,8.77
2018-05-15T05:41:49.656Z,12.27
2018-05-15T05:44:59.450Z,11.23
2018-05-15T05:48:09.290Z,11.05
2018-05-15T05:51:20.020Z,9.93
2018-05-15T05:54:29.822Z,10.20
2018-05-15T05:57:41.344Z,9.50
2018-05-15T06:00:51.376Z,9.80
2018-05-15T06:04:01.219Z,8.95
2018-05-15T06:07:11.001Z,9.40
2018-05-15T06:10:21.084Z,9.52
2018-05-15T06:13:30.899Z,9.40
2018-05-15T06:16:41.632Z,9.93
2018-05-15T06:19:52.364Z,8.77
2018-05-15T06:23:03.213Z,8.05
2018-05-15T06:26:13.928Z,7.30
2018-05-15T06:29:23.933Z,8.10
2018-05-15T06:32:34.457Z,6.70
2018-05-15T06:35:45.114Z,7.00
2018-05-15T06:38:55.183Z,5.95
2018-05-15T06:42:05.533Z,7.43
2018-05-15T06:45:15.846Z,6.78
2018-05-15T06:48:26.556Z,7.37
2018-05-15T06:51:36.830Z,7.00
2018-05-15T06:54:47.046Z,7.60
2018-05-15T06:57:56.928Z,7.37
2018-05-15T07:01:06.856Z,7.28
2018-05-15T07:04:17.454Z,7.57
2018-05-15T07:07:28.197Z,7.20
2018-05-15T07:10:38.818Z,6.53
2018-05-15T07:13:49.568Z,5.70
2018-05-15T07:16:59.444Z,7.12
2018-05-15T07:20:09.233Z,6.68
2018-05-15T07:23:20.696Z,7.35
2018-05-15T07:26:30.714Z,5.62
2018-05-15T07:29:40.523Z,7.80
2018-05-15T07:32:51.230Z,6.85
2018-05-15T07:36:01.445Z,7.80
2018-05-15T07:39:11.304Z,10.43
2018-05-15T07:42:21.677Z,8.00
2018-05-15T07:45:33.270Z,6.62
2018-05-15T07:48:43.287Z,8.88
2018-05-15T07:51:53.339Z,8.50
2018-05-15T07:55:03.370Z,9.50
2018-05-15T07:58:15.921Z,7.80
2018-05-15T08:01:26.031Z,8.88
2018-05-15T08:04:36.292Z,7.70
2018-05-15T08:07:46.210Z,7.93
2018-05-15T08:10:56.833Z,6.62
2018-05-15T08:14:06.939Z,7.70
2018-05-15T08:17:17.469Z,9.70
2018-05-15T08:20:27.351Z,10.85
2018-05-15T08:23:37.311Z,10.07
2018-05-15T08:26:47.100Z,8.38
2018-05-15T08:29:56.885Z,5.68
2018-05-15T08:33:06.782Z,6.72
2018-05-15T08:36:16.938Z,8.57
2018-05-15T08:39:27.371Z,9.13
2018-05-15T08:42:38.545Z,7.95
2018-05-15T08:45:48.789Z,6.28
2018-05-15T08:48:58.932Z,6.80
2018-05-15T08:52:09.625Z,7.78
2018-05-15T08:55:19.501Z,6.97
2018-05-15T08:58:29.391Z,8.05
2018-05-15T09:01:40.326Z,6.32
2018-05-15T09:04:50.576Z,6.55
2018-05-15T09:08:01.111Z,4.85
2018-05-15T09:11:11.413Z,6.05
2018-05-15T09:14:21.173Z,5.47
2018-05-15T09:17:30.913Z,5.80
2018-05-15T09:20:41.122Z,7.82
2018-05-15T09:23:51.252Z,5.80
2018-05-15T09:27:02.167Z,6.32
2018-05-15T09:30:13.537Z,6.15
2018-05-15T09:33:23.483Z,6.72
2018-05-15T09:36:33.346Z,6.35
2018-05-15T09:39:44.016Z,7.35
2018-05-15T09:42:55.053Z,6.93
2018-05-15T09:46:05.624Z,7.85
2018-05-15T09:49:16.218Z,7.85
2018-05-15T09:52:26.144Z,7.25
2018-05-15T09:55:36.845Z,7.85
2018-05-15T09:58:47.584Z,8.80
2018-05-15T10:01:57.784Z,7.47
2018-05-15T10:05:07.773Z,5.37
2018-05-15T10:08:18.408Z,8.07
2018-05-15T10:11:28.735Z,8.90
2018-05-15T10:14:39.392Z,6.90
2018-05-15T10:17:49.500Z,7.55
2018-05-15T10:21:00.097Z,3.83
2018-05-15T10:24:10.305Z,6.60
2018-05-15T10:27:20.266Z,7.18
2018-05-15T10:30:30.742Z,4.40
2018-05-15T10:33:40.575Z,6.32
2018-05-15T10:36:51.269Z,6.32
2018-05-15T10:40:02.825Z,5.90
2018-05-15T10:43:13.365Z,8.63
2018-05-15T10:46:23.126Z,6.40
2018-05-15T10:49:33.188Z,6.85
2018-05-15T10:52:45.491Z,4.80
2018-05-15T10:55:55.546Z,5.07
2018-05-15T10:59:05.204Z,6.90
2018-05-15T11:02:16.634Z,6.20
2018-05-15T11:05:26.640Z,4.62
2018-05-15T11:08:37.046Z,6.15
2018-05-15T11:11:47.181Z,6.45
2018-05-15T11:14:57.191Z,7.43
2018-05-15T11:18:19.161Z,6.53
2018-05-15T11:21:40.767Z,9.07
2018-05-15T11:24:53.484Z,6.12
2018-05-15T11:28:03.978Z,8.32
2018-05-15T11:31:14.000Z,6.28
2018-05-15T11:34:24.315Z,6.53
2018-05-15T11:37:34.784Z,7.37
2018-05-15T11:40:45.046Z,6.30
2018-05-15T11:43:55.699Z,7.57
2018-05-15T11:47:05.820Z,10.18
2018-05-15T11:50:16.593Z,10.27
2018-05-15T11:53:26.687Z,7.75
2018-05-15T11:56:37.389Z,8.68
2018-05-15T11:59:47.268Z,9.48
2018-05-15T12:02:57.296Z,8.80
2018-05-15T12:06:07.292Z,9.75
2018-05-15T12:09:17.859Z,9.98
2018-05-15T12:12:28.638Z,8.02
2018-05-15T12:15:38.808Z,8.90
2018-05-15T12:18:49.701Z,8.98
2018-05-15T12:21:59.578Z,7.82
2018-05-15T12:25:09.593Z,9.73
2018-05-15T12:28:19.377Z,7.43
2018-05-15T12:31:30.005Z,9.95
2018-05-15T12:34:39.908Z,8.15
2018-05-15T12:37:49.705Z,10.93
2018-05-15T12:41:00.478Z,7.70
2018-05-15T12:44:10.675Z,12.10
2018-05-15T12:47:22.122Z,9.65
2018-05-15T12:50:33.617Z,9.40
2018-05-15T12:53:44.011Z,10.68
2018-05-15T12:56:53.953Z,10.38
2018-05-15T13:00:04.183Z,11.55
2018-05-15T13:03:15.112Z,10.20
2018-05-15T13:06:25.076Z,11.52
2018-05-15T13:09:35.072Z,10.48
2018-05-15T13:12:45.243Z,13.93
2018-05-15T13:15:55.481Z,10.13
2018-05-15T13:19:06.342Z,12.07
2018-05-15T13:22:17.165Z,12.18
2018-05-15T13:25:27.807Z,11.02
2018-05-15T13:28:37.837Z,10.95
2018-05-15T13:31:47.740Z,10.85
2018-05-15T13:34:57.671Z,10.13
2018-05-15T13:38:08.054Z,10.60
2018-05-15T13:41:18.230Z,11.00
2018-05-15T13:44:29.325Z,8.63
2018-05-15T13:47:39.953Z,8.48
2018-05-15T13:50:50.696Z,12.30
2018-05-15T13:54:00.802Z,8.52
2018-05-15T13:57:10.895Z,7.82
2018-05-15T14:00:20.892Z,10.48
2018-05-15T14:03:30.825Z,10.88
2018-05-15T14:06:40.830Z,13.02
2018-05-15T14:09:51.863Z,8.02
2018-05-15T14:13:02.575Z,9.15
2018-05-15T14:16:12.571Z,9.75
2018-05-15T14:19:22.571Z,8.98
2018-05-15T14:22:32.633Z,11.57
2018-05-15T14:25:42.744Z,10.63
2018-05-15T14:28:52.831Z,11.45
2018-05-15T14:32:03.894Z,10.32
2018-05-15T14:35:14.114Z,10.52
2018-05-15T14:38:24.210Z,10.27
2018-05-15T14:41:45.563Z,11.32
2018-05-15T14:44:55.688Z,11.05
2018-05-15T14:48:06.221Z,9.70
2018-05-15T14:51:31.473Z,9.23
2018-05-15T14:54:41.647Z,9.27
2018-05-15T14:57:51.505Z,10.50
2018-05-15T15:01:01.545Z,7.50
2018-05-15T15:04:11.390Z,8.65
2018-05-15T15:07:21.248Z,10.38
2018-05-15T15:10:32.029Z,6.93
2018-05-15T15:13:42.050Z,6.50
2018-05-15T15:16:51.894Z,7.78
2018-05-15T15:20:01.762Z,6.97
2018-05-15T15:23:11.650Z,4.45
2018-05-15T15:26:23.185Z,4.85
2018-05-15T15:29:33.400Z,4.82
2018-05-15T15:32:43.300Z,4.65
2018-05-15T15:35:53.099Z,5.25
2018-05-15T15:39:02.787Z,6.00
2018-05-15T15:42:12.611Z,4.35
2018-05-15T15:45:22.316Z,4.50
2018-05-15T15:48:32.100Z,6.15
2018-05-15T15:51:42.156Z,4.90
2018-05-15T15:54:51.965Z,6.05
2018-05-15T15:58:02.162Z,5.25
2018-05-15T16:01:13.294Z,5.40
2018-05-15T16:04:23.865Z,6.22
2018-05-15T16:07:34.530Z,6.30
2018-05-15T16:10:44.786Z,6.35
2018-05-15T16:13:56.222Z,4.97
2018-05-15T16:17:06.261Z,7.97
2018-05-15T16:20:16.041Z,8.38
2018-05-15T16:23:26.624Z,6.80
2018-05-15T16:26:36.934Z,8.18
2018-05-15T16:29:47.025Z,7.25
2018-05-15T16:32:58.056Z,6.03
2018-05-15T16:36:09.102Z,9.20
2018-05-15T16:39:20.014Z,5.93
2018-05-15T16:42:29.858Z,7.12
2018-05-15T16:45:41.792Z,6.55
2018-05-15T16:48:52.316Z,6.25
2018-05-15T16:52:03.157Z,6.40
2018-05-15T16:55:12.969Z,5.37
2018-05-15T16:58:23.674Z,9.35
2018-05-15T17:01:33.514Z,7.18
2018-05-15T17:04:43.558Z,9.43
2018-05-15T17:07:54.490Z,8.27
2018-05-15T17:11:05.500Z,7.30
2018-05-15T17:14:15.442Z,7.97
2018-05-15T17:17:26.694Z,7.10
2018-05-15T17:20:37.166Z,7.25
2018-05-15T17:23:47.863Z,7.45
2018-05-15T17:26:57.640Z,6.12
2018-05-15T17:30:07.857Z,7.00
2018-05-15T17:33:17.780Z,8.80
2018-05-15T17:36:27.702Z,9.75
2018-05-15T17:39:37.690Z,10.00
2018-05-15T17:42:47.758Z,17.52
2018-05-15T17:45:57.946Z,9.25
2018-05-15T17:49:08.617Z,9.02
2018-05-15T17:52:19.290Z,8.20
2018-05-15T17:55:29.094Z,8.27
2018-05-15T17:58:38.958Z,9.60
2018-05-15T18:01:48.813Z,5.20
2018-05-15T18:04:58.625Z,5.45
2018-05-15T18:08:08.988Z,4.72
2018-05-15T18:11:20.354Z,7.22
2018-05-15T18:14:30.541Z,4.75
2018-05-15T18:17:40.383Z,7.20
2018-05-15T18:20:50.955Z,4.82
2018-05-15T18:24:01.144Z,7.05
2018-05-15T18:27:11.021Z,5.37
2018-05-15T18:30:21.521Z,3.85
2018-05-15T18:33:31.673Z,4.40
2018-05-15T18:36:42.597Z,4.70
2018-05-15T18:39:53.525Z,5.28
2018-05-15T18:43:03.555Z,4.10
2018-05-15T18:46:14.770Z,4.32
2018-05-15T18:49:25.242Z,3.80
2018-05-15T18:52:35.806Z,2.78
2018-05-15T18:55:46.973Z,4.50
2018-05-15T18:58:57.176Z,4.43
2018-05-15T19:02:06.980Z,5.93
2018-05-15T19:05:16.848Z,4.45
2018-05-15T19:08:27.291Z,4.85
2018-05-15T19:11:37.535Z,5.55
2018-05-15T19:14:47.511Z,9.13
2018-05-15T19:17:57.946Z,5.43
2018-05-15T19:21:08.505Z,6.07
2018-05-15T19:24:18.608Z,7.37
2018-05-15T19:27:29.344Z,8.90
2018-05-15T19:30:39.216Z,5.95
2018-05-15T19:33:52.899Z,7.07
2018-05-15T19:37:08.460Z,7.97
2018-05-15T19:40:18.480Z,7.07
2018-05-15T19:43:29.579Z,7.60
2018-05-15T19:46:39.761Z,7.43
2018-05-15T19:49:50.312Z,8.02
2018-05-15T19:53:00.160Z,8.98
2018-05-15T19:56:10.273Z,8.88
2018-05-15T19:59:20.901Z,9.32
2018-05-15T20:02:31.213Z,12.25
2018-05-15T20:05:40.965Z,10.10
2018-05-15T20:08:51.827Z,10.43
2018-05-15T20:12:01.808Z,7.18
2018-05-15T20:15:12.611Z,8.18
2018-05-15T20:18:23.196Z,8.07
2018-05-15T20:21:32.976Z,8.48
2018-05-15T20:24:42.694Z,9.18
2018-05-15T20:27:52.600Z,11.05
2018-05-15T20:31:02.436Z,8.73
2018-05-15T20:34:13.186Z,7.37
2018-05-15T20:37:23.835Z,8.75
2018-05-15T20:40:34.229Z,9.25
2018-05-15T20:43:44.300Z,8.55
2018-05-15T20:46:55.417Z,9.48
2018-05-15T20:50:05.716Z,10.02
2018-05-15T20:53:15.691Z,8.95
2018-05-15T20:56:26.435Z,8.38
2018-05-15T20:59:37.235Z,9.23
2018-05-15T21:02:47.087Z,8.30
2018-05-15T21:05:57.181Z,11.00
2018-05-15T21:09:08.028Z,9.82
2018-05-15T21:12:17.830Z,11.00
2018-05-15T21:15:27.796Z,11.80
2018-05-15T21:18:37.903Z,14.68
2018-05-15T21:21:48.628Z,11.07
2018-05-15T21:24:58.967Z,15.23
2018-05-15T21:28:09.806Z,11.85
2018-05-15T21:31:19.666Z,12.37
2018-05-15T21:34:29.697Z,15.73
2018-05-15T21:37:39.596Z,16.35
2018-05-15T21:40:50.333Z,13.93
2018-05-15T21:44:00.329Z,17.45
2018-05-15T21:47:11.309Z,16.73
2018-05-15T21:50:22.105Z,14.02
2018-05-15T21:53:31.966Z,13.68
2018-05-15T21:56:41.790Z,13.75
2018-05-15T21:59:52.327Z,18.23
2018-05-15T22:03:02.094Z,15.52
2018-05-15T22:06:11.846Z,18.37
2018-05-15T22:09:22.100Z,13.60
2018-05-15T22:12:43.125Z,16.30
2018-05-15T22:16:05.105Z,15.00
2018-05-15T22:19:26.604Z,16.80
2018-05-15T22:22:36.291Z,13.82
2018-05-15T22:25:46.886Z,14.80
2018-05-15T22:28:56.769Z,18.50
2018-05-15T22:32:06.599Z,16.30
2018-05-15T22:35:16.638Z,18.30
2018-05-15T22:38:26.625Z,13.57
2018-05-15T22:41:36.638Z,15.82
2018-05-15T22:44:47.073Z,15.23
2018-05-15T22:47:58.016Z,17.85
2018-05-15T22:51:09.297Z,22.25
2018-05-15T22:54:19.396Z,19.27
2018-05-15T22:57:29.368Z,18.02
2018-05-15T23:00:39.694Z,16.05
2018-05-15T23:03:49.836Z,20.20
2018-05-15T23:07:01.328Z,18.77
2018-05-15T23:10:12.149Z,16.60
2018-05-15T23:13:22.435Z,15.70
2018-05-15T23:16:32.366Z,13.30
2018-05-15T23:19:43.524Z,16.35
2018-05-15T23:22:53.857Z,15.00
2018-05-15T23:26:03.657Z,18.58
2018-05-15T23:29:13.437Z,14.95
2018-05-15T23:32:23.456Z,16.50
2018-05-15T23:35:33.250Z,14.13
2018-05-15T23:38:43.335Z,13.85
2018-05-15T23:41:54.410Z,10.02
2018-05-15T23:45:04.585Z,9.75
2018-05-15T23:48:15.701Z,11.77
2018-05-15T23:51:26.069Z,14.85
2018-05-15T23:54:35.963Z,9.98
2018-05-15T23:57:46.001Z,10.60
